sensor_id;sensor_type;location;lat;lon;timestamp;pressure;altitude;pressure_sealevel;temperature;humidity
73566;BME280;61846;52.970;-3.168;2024-02-16T00:01:18;99658.45;;;15.97;52.99
73566;BME280;61846;52.970;-3.168;2024-02-16T00:03:44;99663.78;;;16.10;53.37
73566;BME280;61846;52.970;-3.168;2024-02-16T00:06:09;99657.93;;;15.97;52.99
73566;BME280;61846;52.970;-3.168;2024-02-16T00:08:34;99661.48;;;16.46;52.33
73566;BME280;61846;52.970;-3.168;2024-02-16T00:11:00;99662.16;;;16.10;52.88
73566;BME280;61846;52.970;-3.168;2024-02-16T00:13:25;99654.90;;;16.07;52.52
73566;BME280;61846;52.970;-3.168;2024-02-16T00:15:51;99659.51;;;15.74;53.63
73566;BME280;61846;52.970;-3.168;2024-02-16T00:18:16;99668.02;;;15.72;53.58
73566;BME280;61846;52.970;-3.168;2024-02-16T00:20:41;99670.56;;;15.51;54.15
73566;BME280;61846;52.970;-3.168;2024-02-16T00:23:07;99667.39;;;15.75;53.06
73566;BME280;61846;52.970;-3.168;2024-02-16T00:25:32;99668.26;;;16.11;52.78
73566;BME280;61846;52.970;-3.168;2024-02-16T00:27:58;99673.04;;;16.19;52.57
73566;BME280;61846;52.970;-3.168;2024-02-16T00:30:23;99676.21;;;16.23;52.53
73566;BME280;61846;52.970;-3.168;2024-02-16T00:32:48;99681.98;;;15.68;53.57
73566;BME280;61846;52.970;-3.168;2024-02-16T00:35:15;99682.56;;;15.95;53.48
73566;BME280;61846;52.970;-3.168;2024-02-16T00:37:39;99684.75;;;15.85;53.43
73566;BME280;61846;52.970;-3.168;2024-02-16T00:40:06;99685.53;;;15.27;53.82
73566;BME280;61846;52.970;-3.168;2024-02-16T00:42:30;99676.80;;;15.66;53.61
73566;BME280;61846;52.970;-3.168;2024-02-16T00:44:56;99668.82;;;15.40;53.56
73566;BME280;61846;52.970;-3.168;2024-02-16T00:47:21;99677.43;;;14.95;54.71
73566;BME280;61846;52.970;-3.168;2024-02-16T00:49:46;99676.93;;;15.25;54.11
73566;BME280;61846;52.970;-3.168;2024-02-16T00:52:12;99677.64;;;15.79;52.98
73566;BME280;61846;52.970;-3.168;2024-02-16T00:54:37;99667.16;;;15.78;53.05
73566;BME280;61846;52.970;-3.168;2024-02-16T00:57:03;99659.12;;;15.38;53.15
73566;BME280;61846;52.970;-3.168;2024-02-16T00:59:28;99662.98;;;15.82;52.72
73566;BME280;61846;52.970;-3.168;2024-02-16T01:01:54;99667.74;;;15.04;54.00
73566;BME280;61846;52.970;-3.168;2024-02-16T01:04:19;99671.02;;;15.60;53.42
73566;BME280;61846;52.970;-3.168;2024-02-16T01:06:45;99674.53;;;15.95;52.45
73566;BME280;61846;52.970;-3.168;2024-02-16T01:09:10;99680.86;;;15.23;53.42
73566;BME280;61846;52.970;-3.168;2024-02-16T01:11:35;99688.49;;;16.15;51.89
73566;BME280;61846;52.970;-3.168;2024-02-16T01:14:01;99689.34;;;15.63;52.28
73566;BME280;61846;52.970;-3.168;2024-02-16T01:16:26;99686.07;;;15.64;52.77
73566;BME280;61846;52.970;-3.168;2024-02-16T01:18:52;99679.94;;;14.90;53.76
73566;BME280;61846;52.970;-3.168;2024-02-16T01:21:17;99681.61;;;15.46;52.94
73566;BME280;61846;52.970;-3.168;2024-02-16T01:23:43;99680.48;;;15.67;52.16
73566;BME280;61846;52.970;-3.168;2024-02-16T01:26:08;99677.23;;;15.17;53.47
73566;BME280;61846;52.970;-3.168;2024-02-16T01:28:34;99691.36;;;15.27;52.90
73566;BME280;61846;52.970;-3.168;2024-02-16T01:30:59;99689.23;;;14.88;54.16
73566;BME280;61846;52.970;-3.168;2024-02-16T01:33:25;99690.84;;;14.71;54.65
73566;BME280;61846;52.970;-3.168;2024-02-16T01:35:50;99692.89;;;15.12;53.80
73566;BME280;61846;52.970;-3.168;2024-02-16T01:38:15;99690.71;;;14.17;56.18
73566;BME280;61846;52.970;-3.168;2024-02-16T01:40:41;99683.75;;;14.65;55.63
73566;BME280;61846;52.970;-3.168;2024-02-16T01:43:07;99681.44;;;14.81;54.94
73566;BME280;61846;52.970;-3.168;2024-02-16T01:45:32;99683.79;;;14.92;54.40
73566;BME280;61846;52.970;-3.168;2024-02-16T01:47:58;99686.86;;;14.42;54.61
73566;BME280;61846;52.970;-3.168;2024-02-16T01:50:23;99692.97;;;14.92;53.72
73566;BME280;61846;52.970;-3.168;2024-02-16T01:52:49;99703.97;;;15.02;54.01
73566;BME280;61846;52.970;-3.168;2024-02-16T01:55:16;99706.13;;;14.44;54.94
73566;BME280;61846;52.970;-3.168;2024-02-16T01:57:40;99706.25;;;14.19;55.25
73566;BME280;61846;52.970;-3.168;2024-02-16T02:00:06;99708.84;;;14.65;54.80
73566;BME280;61846;52.970;-3.168;2024-02-16T02:02:30;99716.42;;;14.49;54.67
73566;BME280;61846;52.970;-3.168;2024-02-16T02:04:56;99716.65;;;14.51;54.94
73566;BME280;61846;52.970;-3.168;2024-02-16T02:07:26;99716.18;;;14.46;54.70
73566;BME280;61846;52.970;-3.168;2024-02-16T02:09:47;99709.10;;;15.09;53.79
73566;BME280;61846;52.970;-3.168;2024-02-16T02:12:12;99712.12;;;14.76;53.88
73566;BME280;61846;52.970;-3.168;2024-02-16T02:14:38;99715.00;;;15.07;53.40
73566;BME280;61846;52.970;-3.168;2024-02-16T02:17:03;99713.29;;;14.87;53.81
73566;BME280;61846;52.970;-3.168;2024-02-16T02:19:29;99717.03;;;15.28;53.16
73566;BME280;61846;52.970;-3.168;2024-02-16T02:21:54;99722.22;;;15.31;52.47
73566;BME280;61846;52.970;-3.168;2024-02-16T02:24:20;99720.63;;;15.10;52.53
73566;BME280;61846;52.970;-3.168;2024-02-16T02:26:45;99723.80;;;15.69;52.01
73566;BME280;61846;52.970;-3.168;2024-02-16T02:29:10;99726.50;;;15.18;52.44
73566;BME280;61846;52.970;-3.168;2024-02-16T02:31:36;99728.33;;;15.26;51.94
73566;BME280;61846;52.970;-3.168;2024-02-16T02:34:02;99732.31;;;14.90;53.48
73566;BME280;61846;52.970;-3.168;2024-02-16T02:36:27;99745.43;;;14.80;53.01
73566;BME280;61846;52.970;-3.168;2024-02-16T02:38:52;99747.94;;;12.68;57.15
73566;BME280;61846;52.970;-3.168;2024-02-16T02:41:18;99746.59;;;13.35;56.71
73566;BME280;61846;52.970;-3.168;2024-02-16T02:43:43;99747.79;;;13.57;56.23
73566;BME280;61846;52.970;-3.168;2024-02-16T02:46:09;99749.77;;;14.43;54.18
73566;BME280;61846;52.970;-3.168;2024-02-16T02:48:34;99751.72;;;14.65;53.71
73566;BME280;61846;52.970;-3.168;2024-02-16T02:51:00;99754.23;;;14.21;53.83
73566;BME280;61846;52.970;-3.168;2024-02-16T02:53:27;99759.26;;;14.86;54.01
73566;BME280;61846;52.970;-3.168;2024-02-16T02:55:51;99757.42;;;15.00;53.47
73566;BME280;61846;52.970;-3.168;2024-02-16T02:58:16;99758.37;;;15.30;53.14
73566;BME280;61846;52.970;-3.168;2024-02-16T03:00:42;99761.73;;;15.28;52.84
73566;BME280;61846;52.970;-3.168;2024-02-16T03:03:07;99763.44;;;14.54;53.57
73566;BME280;61846;52.970;-3.168;2024-02-16T03:05:32;99761.48;;;14.09;55.40
73566;BME280;61846;52.970;-3.168;2024-02-16T03:07:58;99762.50;;;14.34;55.15
73566;BME280;61846;52.970;-3.168;2024-02-16T03:10:23;99761.63;;;14.61;54.31
73566;BME280;61846;52.970;-3.168;2024-02-16T03:12:49;99766.96;;;14.66;54.03
73566;BME280;61846;52.970;-3.168;2024-02-16T03:15:14;99767.81;;;13.92;55.59
73566;BME280;61846;52.970;-3.168;2024-02-16T03:17:40;99773.41;;;14.22;55.08
73566;BME280;61846;52.970;-3.168;2024-02-16T03:20:06;99777.78;;;13.36;56.79
73566;BME280;61846;52.970;-3.168;2024-02-16T03:22:31;99778.18;;;13.97;55.64
73566;BME280;61846;52.970;-3.168;2024-02-16T03:24:56;99784.26;;;14.31;54.57
73566;BME280;61846;52.970;-3.168;2024-02-16T03:27:22;99787.24;;;14.15;55.04
73566;BME280;61846;52.970;-3.168;2024-02-16T03:29:47;99793.85;;;14.34;54.71
73566;BME280;61846;52.970;-3.168;2024-02-16T03:32:13;99793.98;;;13.91;55.09
73566;BME280;61846;52.970;-3.168;2024-02-16T03:34:38;99793.26;;;14.79;54.08
73566;BME280;61846;52.970;-3.168;2024-02-16T03:37:04;99793.57;;;14.77;53.82
73566;BME280;61846;52.970;-3.168;2024-02-16T03:39:29;99796.38;;;14.67;54.48
73566;BME280;61846;52.970;-3.168;2024-02-16T03:41:54;99802.90;;;14.01;55.96
73566;BME280;61846;52.970;-3.168;2024-02-16T03:44:20;99803.22;;;14.25;55.97
73566;BME280;61846;52.970;-3.168;2024-02-16T03:46:45;99803.57;;;14.35;55.84
73566;BME280;61846;52.970;-3.168;2024-02-16T03:49:11;99806.36;;;13.90;57.10
73566;BME280;61846;52.970;-3.168;2024-02-16T03:51:36;99811.84;;;12.76;60.74
73566;BME280;61846;52.970;-3.168;2024-02-16T03:54:03;99813.53;;;13.41;59.09
73566;BME280;61846;52.970;-3.168;2024-02-16T03:56:27;99814.19;;;13.00;59.13
73566;BME280;61846;52.970;-3.168;2024-02-16T03:58:53;99819.50;;;13.25;59.97
73566;BME280;61846;52.970;-3.168;2024-02-16T04:01:18;99825.80;;;13.15;60.18
73566;BME280;61846;52.970;-3.168;2024-02-16T04:03:44;99831.19;;;13.31;60.01
73566;BME280;61846;52.970;-3.168;2024-02-16T04:06:09;99830.85;;;13.75;58.51
73566;BME280;61846;52.970;-3.168;2024-02-16T04:08:35;99834.07;;;13.59;58.94
73566;BME280;61846;52.970;-3.168;2024-02-16T04:11:00;99839.40;;;12.61;60.30
73566;BME280;61846;52.970;-3.168;2024-02-16T04:13:26;99839.21;;;13.32;59.48
73566;BME280;61846;52.970;-3.168;2024-02-16T04:15:51;99843.15;;;13.67;58.23
73566;BME280;61846;52.970;-3.168;2024-02-16T04:18:16;99845.51;;;13.80;57.42
73566;BME280;61846;52.970;-3.168;2024-02-16T04:20:42;99848.69;;;13.32;58.08
73566;BME280;61846;52.970;-3.168;2024-02-16T04:23:07;99851.61;;;13.71;56.74
73566;BME280;61846;52.970;-3.168;2024-02-16T04:25:33;99856.14;;;14.32;56.09
73566;BME280;61846;52.970;-3.168;2024-02-16T04:27:59;99857.10;;;14.05;55.63
73566;BME280;61846;52.970;-3.168;2024-02-16T04:30:24;99854.19;;;14.36;55.10
73566;BME280;61846;52.970;-3.168;2024-02-16T04:32:50;99861.25;;;13.93;55.63
73566;BME280;61846;52.970;-3.168;2024-02-16T04:35:15;99871.73;;;12.68;58.00
73566;BME280;61846;52.970;-3.168;2024-02-16T04:37:40;99873.87;;;12.78;58.73
73566;BME280;61846;52.970;-3.168;2024-02-16T04:40:06;99873.65;;;12.55;59.01
73566;BME280;61846;52.970;-3.168;2024-02-16T04:42:31;99872.29;;;12.85;58.48
73566;BME280;61846;52.970;-3.168;2024-02-16T04:44:57;99873.55;;;13.85;56.74
73566;BME280;61846;52.970;-3.168;2024-02-16T04:47:22;99876.58;;;13.90;55.53
73566;BME280;61846;52.970;-3.168;2024-02-16T04:49:48;99886.58;;;13.44;57.05
73566;BME280;61846;52.970;-3.168;2024-02-16T04:52:13;99892.01;;;13.41;56.36
73566;BME280;61846;52.970;-3.168;2024-02-16T04:54:39;99891.77;;;14.18;54.88
73566;BME280;61846;52.970;-3.168;2024-02-16T04:57:04;99902.22;;;14.07;54.37
73566;BME280;61846;52.970;-3.168;2024-02-16T04:59:30;99909.29;;;13.81;55.05
73566;BME280;61846;52.970;-3.168;2024-02-16T05:01:55;99915.18;;;14.13;55.09
73566;BME280;61846;52.970;-3.168;2024-02-16T05:04:21;99912.16;;;14.84;53.46
73566;BME280;61846;52.970;-3.168;2024-02-16T05:06:46;99918.60;;;14.57;53.88
73566;BME280;61846;52.970;-3.168;2024-02-16T05:09:12;99919.83;;;14.64;53.85
73566;BME280;61846;52.970;-3.168;2024-02-16T05:11:37;99920.72;;;15.25;52.51
73566;BME280;61846;52.970;-3.168;2024-02-16T05:14:03;99924.33;;;15.03;52.36
73566;BME280;61846;52.970;-3.168;2024-02-16T05:16:28;99922.87;;;15.35;52.08
73566;BME280;61846;52.970;-3.168;2024-02-16T05:18:55;99928.25;;;15.31;52.24
73566;BME280;61846;52.970;-3.168;2024-02-16T05:21:19;99933.85;;;14.49;53.59
73566;BME280;61846;52.970;-3.168;2024-02-16T05:23:44;99943.86;;;14.01;54.08
73566;BME280;61846;52.970;-3.168;2024-02-16T05:26:10;99946.66;;;14.68;53.28
73566;BME280;61846;52.970;-3.168;2024-02-16T05:28:35;99947.34;;;14.88;52.66
73566;BME280;61846;52.970;-3.168;2024-02-16T05:33:26;99954.63;;;14.63;53.08
73566;BME280;61846;52.970;-3.168;2024-02-16T05:35:52;99955.97;;;14.26;53.65
73566;BME280;61846;52.970;-3.168;2024-02-16T05:38:17;99957.96;;;12.83;57.26
73566;BME280;61846;52.970;-3.168;2024-02-16T05:40:43;99961.63;;;12.97;56.86
73566;BME280;61846;52.970;-3.168;2024-02-16T05:43:08;99965.57;;;13.83;54.49
73566;BME280;61846;52.970;-3.168;2024-02-16T05:45:34;99970.37;;;12.99;56.30
73566;BME280;61846;52.970;-3.168;2024-02-16T05:47:59;99976.25;;;13.12;55.99
73566;BME280;61846;52.970;-3.168;2024-02-16T05:50:25;99977.61;;;14.02;54.05
73566;BME280;61846;52.970;-3.168;2024-02-16T05:52:50;99974.94;;;14.34;53.45
73566;BME280;61846;52.970;-3.168;2024-02-16T05:55:16;99983.08;;;13.96;54.21
73566;BME280;61846;52.970;-3.168;2024-02-16T05:57:41;99987.17;;;13.62;55.26
73566;BME280;61846;52.970;-3.168;2024-02-16T06:00:09;99990.17;;;13.42;55.04
73566;BME280;61846;52.970;-3.168;2024-02-16T06:02:32;99994.00;;;13.31;55.87
73566;BME280;61846;52.970;-3.168;2024-02-16T06:04:58;99990.87;;;14.10;53.84
73566;BME280;61846;52.970;-3.168;2024-02-16T06:07:23;99986.26;;;14.55;52.79
73566;BME280;61846;52.970;-3.168;2024-02-16T06:09:48;99989.03;;;14.19;53.38
73566;BME280;61846;52.970;-3.168;2024-02-16T06:12:14;99990.41;;;14.15;53.09
73566;BME280;61846;52.970;-3.168;2024-02-16T06:14:39;99992.29;;;13.71;52.87
73566;BME280;61846;52.970;-3.168;2024-02-16T06:17:05;99996.31;;;13.21;53.98
73566;BME280;61846;52.970;-3.168;2024-02-16T06:19:30;99999.83;;;13.59;52.88
73566;BME280;61846;52.970;-3.168;2024-02-16T06:21:56;100006.04;;;13.88;52.44
73566;BME280;61846;52.970;-3.168;2024-02-16T06:24:22;100011.34;;;13.47;52.95
73566;BME280;61846;52.970;-3.168;2024-02-16T06:26:47;100012.22;;;12.01;56.25
73566;BME280;61846;52.970;-3.168;2024-02-16T06:29:12;100011.30;;;12.46;56.40
73566;BME280;61846;52.970;-3.168;2024-02-16T06:31:38;100013.24;;;12.86;55.24
73566;BME280;61846;52.970;-3.168;2024-02-16T06:34:04;100015.49;;;13.39;54.14
73566;BME280;61846;52.970;-3.168;2024-02-16T06:36:29;100018.56;;;13.19;54.32
73566;BME280;61846;52.970;-3.168;2024-02-16T06:38:54;100017.68;;;13.14;53.78
73566;BME280;61846;52.970;-3.168;2024-02-16T06:41:20;100023.77;;;13.42;52.77
73566;BME280;61846;52.970;-3.168;2024-02-16T06:43:45;100026.71;;;13.72;52.54
73566;BME280;61846;52.970;-3.168;2024-02-16T06:46:11;100028.71;;;13.59;51.87
73566;BME280;61846;52.970;-3.168;2024-02-16T06:48:36;100035.82;;;13.12;52.91
73566;BME280;61846;52.970;-3.168;2024-02-16T06:51:03;100043.56;;;13.04;53.89
73566;BME280;61846;52.970;-3.168;2024-02-16T06:53:27;100043.86;;;13.48;52.97
73566;BME280;61846;52.970;-3.168;2024-02-16T06:55:53;100050.42;;;13.36;53.46
73566;BME280;61846;52.970;-3.168;2024-02-16T06:58:18;100056.28;;;13.08;52.96
73566;BME280;61846;52.970;-3.168;2024-02-16T07:00:44;100058.87;;;13.67;52.54
73566;BME280;61846;52.970;-3.168;2024-02-16T07:03:09;100067.93;;;13.01;53.82
73566;BME280;61846;52.970;-3.168;2024-02-16T07:05:35;100072.39;;;13.40;52.42
73566;BME280;61846;52.970;-3.168;2024-02-16T07:08:01;100080.46;;;13.55;52.40
73566;BME280;61846;52.970;-3.168;2024-02-16T07:10:26;100080.95;;;13.37;52.33
73566;BME280;61846;52.970;-3.168;2024-02-16T07:12:52;100083.44;;;13.71;52.13
73566;BME280;61846;52.970;-3.168;2024-02-16T07:15:17;100088.14;;;13.40;52.88
73566;BME280;61846;52.970;-3.168;2024-02-16T07:17:42;100091.15;;;13.33;52.94
73566;BME280;61846;52.970;-3.168;2024-02-16T07:20:08;100093.01;;;13.25;53.51
73566;BME280;61846;52.970;-3.168;2024-02-16T07:22:33;100096.97;;;13.23;53.13
73566;BME280;61846;52.970;-3.168;2024-02-16T07:24:59;100100.14;;;13.78;52.20
73566;BME280;61846;52.970;-3.168;2024-02-16T07:27:24;100100.71;;;13.96;51.84
73566;BME280;61846;52.970;-3.168;2024-02-16T07:29:50;100108.96;;;13.83;52.24
73566;BME280;61846;52.970;-3.168;2024-02-16T07:32:16;100108.97;;;13.85;51.59
73566;BME280;61846;52.970;-3.168;2024-02-16T07:34:42;100116.11;;;13.60;52.60
73566;BME280;61846;52.970;-3.168;2024-02-16T07:37:06;100117.84;;;13.20;52.06
73566;BME280;61846;52.970;-3.168;2024-02-16T07:39:31;100122.53;;;13.69;51.97
73566;BME280;61846;52.970;-3.168;2024-02-16T07:41:57;100125.08;;;13.21;52.54
73566;BME280;61846;52.970;-3.168;2024-02-16T07:44:22;100133.58;;;12.11;54.44
73566;BME280;61846;52.970;-3.168;2024-02-16T07:46:48;100138.90;;;12.56;53.59
73566;BME280;61846;52.970;-3.168;2024-02-16T07:49:13;100139.69;;;12.36;53.71
73566;BME280;61846;52.970;-3.168;2024-02-16T07:51:39;100139.83;;;12.55;53.29
73566;BME280;61846;52.970;-3.168;2024-02-16T07:54:04;100144.57;;;13.16;52.69
73566;BME280;61846;52.970;-3.168;2024-02-16T07:56:29;100149.84;;;11.80;55.50
73566;BME280;61846;52.970;-3.168;2024-02-16T07:58:55;100152.00;;;11.97;56.24
73566;BME280;61846;52.970;-3.168;2024-02-16T08:01:21;100155.68;;;11.94;55.99
73566;BME280;61846;52.970;-3.168;2024-02-16T08:03:46;100158.72;;;11.62;57.57
73566;BME280;61846;52.970;-3.168;2024-02-16T08:06:12;100157.18;;;12.50;55.03
73566;BME280;61846;52.970;-3.168;2024-02-16T08:08:37;100163.87;;;12.81;54.41
73566;BME280;61846;52.970;-3.168;2024-02-16T08:11:03;100165.04;;;12.82;53.85
73566;BME280;61846;52.970;-3.168;2024-02-16T08:13:28;100170.38;;;13.18;52.97
73566;BME280;61846;52.970;-3.168;2024-02-16T08:15:54;100171.95;;;13.24;52.86
73566;BME280;61846;52.970;-3.168;2024-02-16T08:18:19;100178.06;;;13.27;52.72
73566;BME280;61846;52.970;-3.168;2024-02-16T08:20:47;100181.66;;;13.80;51.80
73566;BME280;61846;52.970;-3.168;2024-02-16T08:23:10;100184.01;;;13.21;52.08
73566;BME280;61846;52.970;-3.168;2024-02-16T08:25:35;100191.73;;;12.97;53.72
73566;BME280;61846;52.970;-3.168;2024-02-16T08:28:01;100192.23;;;13.32;52.93
73566;BME280;61846;52.970;-3.168;2024-02-16T08:30:27;100193.51;;;12.96;53.70
73566;BME280;61846;52.970;-3.168;2024-02-16T08:32:51;100195.97;;;13.82;51.98
73566;BME280;61846;52.970;-3.168;2024-02-16T08:35:17;100198.29;;;13.57;52.29
73566;BME280;61846;52.970;-3.168;2024-02-16T08:37:43;100198.11;;;14.01;52.12
73566;BME280;61846;52.970;-3.168;2024-02-16T08:40:09;100200.02;;;13.82;51.42
73566;BME280;61846;52.970;-3.168;2024-02-16T08:42:34;100202.21;;;14.33;51.47
73566;BME280;61846;52.970;-3.168;2024-02-16T08:44:59;100206.45;;;14.16;52.67
73566;BME280;61846;52.970;-3.168;2024-02-16T08:47:25;100210.46;;;14.11;52.07
73566;BME280;61846;52.970;-3.168;2024-02-16T08:49:51;100215.56;;;13.50;52.37
73566;BME280;61846;52.970;-3.168;2024-02-16T08:52:16;100219.84;;;14.27;50.66
73566;BME280;61846;52.970;-3.168;2024-02-16T08:54:42;100222.78;;;13.87;51.82
73566;BME280;61846;52.970;-3.168;2024-02-16T08:57:07;100224.50;;;14.20;51.54
73566;BME280;61846;52.970;-3.168;2024-02-16T08:59:32;100231.40;;;14.26;50.75
73566;BME280;61846;52.970;-3.168;2024-02-16T09:01:57;100231.80;;;14.70;50.77
73566;BME280;61846;52.970;-3.168;2024-02-16T09:04:23;100238.87;;;14.76;50.31
73566;BME280;61846;52.970;-3.168;2024-02-16T09:06:48;100241.01;;;13.80;51.94
73566;BME280;61846;52.970;-3.168;2024-02-16T09:09:14;100246.44;;;14.72;50.70
73566;BME280;61846;52.970;-3.168;2024-02-16T09:11:39;100251.34;;;14.70;51.66
73566;BME280;61846;52.970;-3.168;2024-02-16T09:14:04;100249.59;;;14.21;52.48
73566;BME280;61846;52.970;-3.168;2024-02-16T09:16:29;100252.43;;;14.45;51.89
73566;BME280;61846;52.970;-3.168;2024-02-16T09:18:55;100253.37;;;13.76;52.96
73566;BME280;61846;52.970;-3.168;2024-02-16T09:21:20;100260.89;;;11.91;56.57
73566;BME280;61846;52.970;-3.168;2024-02-16T09:23:46;100265.79;;;12.62;55.86
73566;BME280;61846;52.970;-3.168;2024-02-16T09:26:11;100264.00;;;12.54;57.28
73566;BME280;61846;52.970;-3.168;2024-02-16T09:28:39;100280.99;;;11.20;60.83
73566;BME280;61846;52.970;-3.168;2024-02-16T09:31:03;100277.87;;;11.10;61.30
73566;BME280;61846;52.970;-3.168;2024-02-16T09:33:28;100289.94;;;10.89;63.50
73566;BME280;61846;52.970;-3.168;2024-02-16T09:35:54;100284.88;;;11.65;60.85
73566;BME280;61846;52.970;-3.168;2024-02-16T09:38:19;100294.06;;;11.21;62.20
73566;BME280;61846;52.970;-3.168;2024-02-16T09:40:44;100293.19;;;10.94;63.67
73566;BME280;61846;52.970;-3.168;2024-02-16T09:43:10;100298.81;;;11.32;63.25
73566;BME280;61846;52.970;-3.168;2024-02-16T09:45:36;100295.55;;;12.66;59.42
73566;BME280;61846;52.970;-3.168;2024-02-16T09:48:02;100304.49;;;11.91;59.80
73566;BME280;61846;52.970;-3.168;2024-02-16T09:50:26;100312.62;;;11.23;62.40
73566;BME280;61846;52.970;-3.168;2024-02-16T09:52:52;100312.05;;;11.62;61.17
73566;BME280;61846;52.970;-3.168;2024-02-16T09:55:17;100321.11;;;11.40;61.80
73566;BME280;61846;52.970;-3.168;2024-02-16T09:57:44;100327.78;;;11.10;62.22
73566;BME280;61846;52.970;-3.168;2024-02-16T10:00:10;100325.01;;;11.86;60.77
73566;BME280;61846;52.970;-3.168;2024-02-16T10:02:40;100331.31;;;12.30;59.42
73566;BME280;61846;52.970;-3.168;2024-02-16T10:04:59;100331.36;;;12.40;59.38
73566;BME280;61846;52.970;-3.168;2024-02-16T10:07:31;100347.70;;;12.17;59.22
73566;BME280;61846;52.970;-3.168;2024-02-16T10:09:50;100351.53;;;10.74;63.36
73566;BME280;61846;52.970;-3.168;2024-02-16T10:12:18;100360.28;;;10.12;63.82
73566;BME280;61846;52.970;-3.168;2024-02-16T10:14:41;100363.55;;;10.26;65.35
73566;BME280;61846;52.970;-3.168;2024-02-16T10:17:07;100366.44;;;10.93;63.17
73566;BME280;61846;52.970;-3.168;2024-02-16T10:19:32;100370.84;;;10.70;63.59
73566;BME280;61846;52.970;-3.168;2024-02-16T10:22:06;100376.13;;;11.37;62.85
73566;BME280;61846;52.970;-3.168;2024-02-16T10:24:23;100378.45;;;11.02;62.93
73566;BME280;61846;52.970;-3.168;2024-02-16T10:26:49;100383.61;;;11.88;61.67
73566;BME280;61846;52.970;-3.168;2024-02-16T10:29:17;100387.36;;;11.82;61.49
73566;BME280;61846;52.970;-3.168;2024-02-16T10:31:40;100392.86;;;12.63;60.06
73566;BME280;61846;52.970;-3.168;2024-02-16T10:34:06;100393.68;;;12.27;57.99
73566;BME280;61846;52.970;-3.168;2024-02-16T10:36:32;100391.71;;;12.08;59.89
73566;BME280;61846;52.970;-3.168;2024-02-16T10:38:56;100400.66;;;12.05;59.97
73566;BME280;61846;52.970;-3.168;2024-02-16T10:41:24;100399.22;;;12.64;59.99
73566;BME280;61846;52.970;-3.168;2024-02-16T10:43:48;100403.30;;;12.24;58.36
73566;BME280;61846;52.970;-3.168;2024-02-16T10:46:12;100401.03;;;12.34;58.65
73566;BME280;61846;52.970;-3.168;2024-02-16T10:48:38;100414.60;;;12.68;59.69
73566;BME280;61846;52.970;-3.168;2024-02-16T10:51:04;100414.07;;;12.13;59.12
73566;BME280;61846;52.970;-3.168;2024-02-16T10:53:29;100419.77;;;12.37;58.98
73566;BME280;61846;52.970;-3.168;2024-02-16T10:55:57;100418.40;;;13.11;59.11
73566;BME280;61846;52.970;-3.168;2024-02-16T10:58:20;100416.81;;;13.23;55.84
73566;BME280;61846;52.970;-3.168;2024-02-16T11:00:50;100419.51;;;13.38;54.53
73566;BME280;61846;52.970;-3.168;2024-02-16T11:03:17;100421.72;;;12.30;56.21
73566;BME280;61846;52.970;-3.168;2024-02-16T11:05:40;100418.39;;;13.45;54.79
73566;BME280;61846;52.970;-3.168;2024-02-16T11:08:03;100425.25;;;14.23;53.30
73566;BME280;61846;52.970;-3.168;2024-02-16T11:10:27;100429.88;;;13.26;54.78
73566;BME280;61846;52.970;-3.168;2024-02-16T11:12:54;100433.60;;;11.82;58.52
73566;BME280;61846;52.970;-3.168;2024-02-16T11:15:27;100449.06;;;12.09;58.73
73566;BME280;61846;52.970;-3.168;2024-02-16T11:17:43;100457.36;;;12.28;58.02
73566;BME280;61846;52.970;-3.168;2024-02-16T11:20:09;100461.80;;;12.12;57.12
73566;BME280;61846;52.970;-3.168;2024-02-16T11:22:37;100455.21;;;11.52;60.18
73566;BME280;61846;52.970;-3.168;2024-02-16T11:24:59;100467.81;;;12.38;59.04
73566;BME280;61846;52.970;-3.168;2024-02-16T11:27:25;100472.56;;;11.60;61.62
73566;BME280;61846;52.970;-3.168;2024-02-16T11:29:50;100483.95;;;11.34;61.81
73566;BME280;61846;52.970;-3.168;2024-02-16T11:32:17;100479.66;;;11.51;60.36
73566;BME280;61846;52.970;-3.168;2024-02-16T11:34:41;100481.86;;;12.37;58.51
73566;BME280;61846;52.970;-3.168;2024-02-16T11:37:07;100480.17;;;12.79;57.41
73566;BME280;61846;52.970;-3.168;2024-02-16T11:39:32;100478.10;;;12.82;56.53
73566;BME280;61846;52.970;-3.168;2024-02-16T11:42:02;100481.43;;;13.00;55.74
73566;BME280;61846;52.970;-3.168;2024-02-16T11:44:23;100481.73;;;13.95;53.26
73566;BME280;61846;52.970;-3.168;2024-02-16T11:46:48;100491.33;;;12.26;57.22
73566;BME280;61846;52.970;-3.168;2024-02-16T11:49:14;100490.97;;;11.48;58.25
73566;BME280;61846;52.970;-3.168;2024-02-16T11:51:39;100488.89;;;12.08;57.73
73566;BME280;61846;52.970;-3.168;2024-02-16T11:54:05;100485.06;;;11.55;58.05
73566;BME280;61846;52.970;-3.168;2024-02-16T11:56:30;100489.07;;;12.39;57.68
73566;BME280;61846;52.970;-3.168;2024-02-16T11:58:56;100487.31;;;11.89;56.86
73566;BME280;61846;52.970;-3.168;2024-02-16T12:01:21;100494.48;;;11.26;60.18
73566;BME280;61846;52.970;-3.168;2024-02-16T12:03:47;100494.65;;;11.14;59.76
73566;BME280;61846;52.970;-3.168;2024-02-16T12:06:19;100495.00;;;11.66;61.18
73566;BME280;61846;52.970;-3.168;2024-02-16T12:08:39;100505.56;;;11.85;57.68
73566;BME280;61846;52.970;-3.168;2024-02-16T12:11:04;100509.23;;;11.18;59.38
73566;BME280;61846;52.970;-3.168;2024-02-16T12:13:29;100517.41;;;10.90;61.12
73566;BME280;61846;52.970;-3.168;2024-02-16T12:15:54;100527.08;;;10.83;61.53
73566;BME280;61846;52.970;-3.168;2024-02-16T12:18:20;100530.16;;;11.59;60.00
73566;BME280;61846;52.970;-3.168;2024-02-16T12:20:45;100524.73;;;10.90;62.50
73566;BME280;61846;52.970;-3.168;2024-02-16T12:23:12;100528.58;;;11.55;60.32
73566;BME280;61846;52.970;-3.168;2024-02-16T12:25:36;100519.71;;;11.84;61.91
73566;BME280;61846;52.970;-3.168;2024-02-16T12:28:01;100511.22;;;12.24;58.98
73566;BME280;61846;52.970;-3.168;2024-02-16T12:30:27;100528.36;;;12.09;58.08
73566;BME280;61846;52.970;-3.168;2024-02-16T12:32:52;100529.60;;;12.00;58.05
73566;BME280;61846;52.970;-3.168;2024-02-16T12:35:18;100526.23;;;12.11;57.58
73566;BME280;61846;52.970;-3.168;2024-02-16T12:37:43;100532.96;;;12.00;57.52